Time;durP1;ratioP1;P1;durP2;ratioP2;P2;SDS_P1;SDS_P2;PMS_P1;PMS_P2;Temp;Humidity;BMP_temperature;BMP_pressure;BME280_temperature;BME280_humidity;BME280_pressure;Samples;Min_cycle;Max_cycle;Signal;HPM_P1;HPM_P2
2023/01/15 00:01:25;;;;;;;7.10;0.80;;;;;;;;;;5236623;28;20017;-72
2023/01/15 00:03:57;;;;;;;5.13;0.50;;;;;;;;;;5236916;28;20022;-73
2023/01/15 00:06:29;;;;;;;4.40;0.60;;;;;;;;;;5236003;28;20021;-73
2023/01/15 00:09:00;;;;;;;3.35;0.40;;;;;;;;;;5236975;28;20033;-72
2023/01/15 00:11:31;;;;;;;3.13;0.57;;;;;;;;;;5237047;28;20030;-73
2023/01/15 00:14:03;;;;;;;4.10;0.60;;;;;;;;;;5236048;28;20101;-73
2023/01/15 00:16:34;;;;;;;2.35;0.40;;;;;;;;;;5236682;28;20051;-73
2023/01/15 00:19:07;;;;;;;4.10;0.40;;;;;;;;;;5236694;28;20053;-73
2023/01/15 00:21:39;;;;;;;3.08;0.40;;;;;;;;;;5235843;28;20486;-73
2023/01/15 00:29:50;;;;;;;4.32;0.75;;;;;;;;;;5236578;28;20470;-72
2023/01/15 00:32:21;;;;;;;3.92;0.32;;;;;;;;;;5236743;28;20053;-73
2023/01/15 00:34:52;;;;;;;2.50;0.40;;;;;;;;;;5235787;28;20022;-73
2023/01/15 00:37:23;;;;;;;5.70;0.60;;;;;;;;;;5236587;28;20024;-73
2023/01/15 00:39:54;;;;;;;5.32;0.50;;;;;;;;;;5236418;28;20112;-73
2023/01/15 00:42:25;;;;;;;3.80;0.50;;;;;;;;;;5235851;28;20022;-72
2023/01/15 00:44:57;;;;;;;3.15;0.40;;;;;;;;;;5236519;28;20146;-73
2023/01/15 00:47:28;;;;;;;5.20;0.70;;;;;;;;;;5239362;28;20118;-73
2023/01/15 00:49:59;;;;;;;4.13;0.30;;;;;;;;;;5239041;28;20028;-72
2023/01/15 00:52:30;;;;;;;4.68;0.45;;;;;;;;;;5240507;28;20095;-72
2023/01/15 00:55:01;;;;;;;7.22;0.80;;;;;;;;;;5240124;28;20040;-72
2023/01/15 00:57:33;;;;;;;3.13;0.40;;;;;;;;;;5239183;28;20029;-72
2023/01/15 01:00:04;;;;;;;3.00;0.38;;;;;;;;;;5239897;28;20098;-73
2023/01/15 01:02:36;;;;;;;4.15;0.38;;;;;;;;;;5239007;28;20060;-73
2023/01/15 01:05:07;;;;;;;3.22;0.40;;;;;;;;;;5239856;28;20032;-72
2023/01/15 01:07:38;;;;;;;3.42;0.30;;;;;;;;;;5239508;28;20025;-73
2023/01/15 01:10:10;;;;;;;3.88;0.52;;;;;;;;;;5239182;28;20035;-73
2023/01/15 01:12:41;;;;;;;4.78;0.45;;;;;;;;;;5239229;28;20029;-74
2023/01/15 01:15:12;;;;;;;4.32;0.50;;;;;;;;;;5239874;28;20017;-73
2023/01/15 01:17:43;;;;;;;6.07;0.73;;;;;;;;;;5238842;28;20056;-73
2023/01/15 01:20:15;;;;;;;7.03;0.80;;;;;;;;;;5239938;28;20018;-73
2023/01/15 01:22:48;;;;;;;4.10;0.32;;;;;;;;;;5239219;28;20037;-73
2023/01/15 01:25:19;;;;;;;5.20;1.15;;;;;;;;;;5239060;28;20028;-74
2023/01/15 01:27:50;;;;;;;6.65;0.38;;;;;;;;;;5238816;28;20041;-74
2023/01/15 01:30:21;;;;;;;4.63;0.60;;;;;;;;;;5239413;28;20387;-74
2023/01/15 01:32:53;;;;;;;1.98;0.40;;;;;;;;;;5238811;28;20018;-74
2023/01/15 01:35:24;;;;;;;4.95;0.40;;;;;;;;;;5239206;28;20053;-74
2023/01/15 01:37:55;;;;;;;4.20;0.40;;;;;;;;;;5238326;28;20391;-73
2023/01/15 01:40:26;;;;;;;3.67;0.30;;;;;;;;;;5239153;28;20033;-74
2023/01/15 01:42:57;;;;;;;4.82;0.40;;;;;;;;;;5239169;28;20486;-74
2023/01/15 01:45:31;;;;;;;7.25;0.50;;;;;;;;;;5238585;28;20097;-74
2023/01/15 01:48:04;;;;;;;5.32;0.40;;;;;;;;;;5238805;28;20488;-73
2023/01/15 01:50:36;;;;;;;5.13;0.40;;;;;;;;;;5238958;28;20491;-74
2023/01/15 01:53:11;;;;;;;3.90;0.43;;;;;;;;;;5238293;28;20057;-74
2023/01/15 01:55:43;;;;;;;4.03;0.40;;;;;;;;;;5238682;28;20086;-73
2023/01/15 01:58:14;;;;;;;7.65;0.50;;;;;;;;;;5238742;28;20417;-73
2023/01/15 02:00:47;;;;;;;6.88;0.50;;;;;;;;;;5237896;28;20018;-73
2023/01/15 02:03:21;;;;;;;3.00;0.35;;;;;;;;;;5239344;28;20456;-73
2023/01/15 02:05:54;;;;;;;3.00;0.52;;;;;;;;;;5238297;28;20540;-73
2023/01/15 02:08:25;;;;;;;4.65;0.30;;;;;;;;;;5238791;28;20037;-73
2023/01/15 02:10:57;;;;;;;3.17;0.40;;;;;;;;;;5238660;28;20078;-73
2023/01/15 02:13:37;;;;;;;5.00;0.50;;;;;;;;;;5237739;28;20460;-73
2023/01/15 02:16:13;;;;;;;4.15;0.40;;;;;;;;;;5238696;28;20014;-73
2023/01/15 02:18:50;;;;;;;6.22;0.40;;;;;;;;;;5238247;28;20074;-73
2023/01/15 02:21:39;;;;;;;4.20;0.60;;;;;;;;;;5238271;28;20397;-74
2023/01/15 02:24:21;;;;;;;5.90;0.52;;;;;;;;;;5239053;28;20082;-73
2023/01/15 02:27:01;;;;;;;6.50;0.40;;;;;;;;;;5237655;28;20026;-74
2023/01/15 02:29:46;;;;;;;6.50;0.40;;;;;;;;;;5238396;28;20030;-73
2023/01/15 02:32:36;;;;;;;4.43;0.50;;;;;;;;;;5238592;28;20527;-73
2023/01/15 02:35:11;;;;;;;5.50;0.50;;;;;;;;;;5237584;28;20030;-73
2023/01/15 02:37:45;;;;;;;7.38;0.82;;;;;;;;;;5237966;28;20023;-73
2023/01/15 02:40:18;;;;;;;5.03;0.75;;;;;;;;;;5238535;28;20029;-73
2023/01/15 02:42:50;;;;;;;6.18;1.63;;;;;;;;;;5236953;28;20479;-73
2023/01/15 02:45:25;;;;;;;7.10;0.45;;;;;;;;;;5238293;28;20105;-74
2023/01/15 02:47:59;;;;;;;3.47;0.50;;;;;;;;;;5237108;28;20496;-74
2023/01/15 02:50:34;;;;;;;4.35;0.30;;;;;;;;;;5238078;28;20045;-73
2023/01/15 02:53:08;;;;;;;3.92;0.40;;;;;;;;;;5237976;28;20021;-73
2023/01/15 02:55:41;;;;;;;5.22;0.50;;;;;;;;;;5237134;28;20018;-74
2023/01/15 02:58:15;;;;;;;4.03;0.40;;;;;;;;;;5238303;28;20025;-74
2023/01/15 03:00:48;;;;;;;5.60;0.75;;;;;;;;;;5237617;28;20021;-73
2023/01/15 03:03:32;;;;;;;3.85;0.40;;;;;;;;;;5237185;28;20488;-73
2023/01/15 03:06:07;;;;;;;5.55;0.35;;;;;;;;;;5237617;28;20069;-73
2023/01/15 03:08:38;;;;;;;3.70;0.40;;;;;;;;;;5236651;28;20033;-73
2023/01/15 03:11:11;;;;;;;5.57;0.60;;;;;;;;;;5237246;28;20017;-73
2023/01/15 03:14:14;;;;;;;5.05;0.50;;;;;;;;;;5237668;28;20026;-73
2023/01/15 03:16:51;;;;;;;6.95;0.63;;;;;;;;;;5258448;28;20017;-74
2023/01/15 03:19:40;;;;;;;4.25;0.40;;;;;;;;;;5237719;28;20024;-74
2023/01/15 03:22:11;;;;;;;;;;;;;;;;;;5238183;28;20036;-73
2023/01/15 03:24:42;;;;;;;4.35;0.80;;;;;;;;;;5236354;28;19909;-73
2023/01/15 03:27:14;;;;;;;6.46;0.74;;;;;;;;;;5237679;28;20288;-73
2023/01/15 03:29:47;;;;;;;6.38;0.47;;;;;;;;;;5236996;28;20025;-72
2023/01/15 03:32:19;;;;;;;4.63;0.40;;;;;;;;;;5236807;28;20460;-74
2023/01/15 03:34:54;;;;;;;4.60;0.90;;;;;;;;;;5236592;28;20511;-73
2023/01/15 03:37:26;;;;;;;6.20;0.50;;;;;;;;;;5236264;28;20067;-73
2023/01/15 03:39:58;;;;;;;6.72;0.50;;;;;;;;;;5237369;28;20025;-74
2023/01/15 03:42:36;;;;;;;9.25;0.63;;;;;;;;;;5237089;28;20017;-72
2023/01/15 03:45:16;;;;;;;7.95;0.50;;;;;;;;;;5236324;28;20492;-73
2023/01/15 03:47:51;;;;;;;4.65;0.70;;;;;;;;;;5236469;28;20141;-73
2023/01/15 03:50:22;;;;;;;6.20;0.50;;;;;;;;;;5237265;28;20464;-73
2023/01/15 03:53:11;;;;;;;3.05;0.32;;;;;;;;;;5236301;28;20043;-73
2023/01/15 03:55:47;;;;;;;4.25;0.35;;;;;;;;;;5236670;28;20089;-73
2023/01/15 03:58:22;;;;;;;4.03;0.30;;;;;;;;;;5236676;28;20028;-73
2023/01/15 04:00:57;;;;;;;8.23;0.50;;;;;;;;;;5236965;28;20163;-73
2023/01/15 04:03:29;;;;;;;6.03;0.60;;;;;;;;;;5236891;28;20024;-73
2023/01/15 04:06:01;;;;;;;6.63;0.82;;;;;;;;;;5236267;28;20018;-73
2023/01/15 04:08:34;;;;;;;8.23;0.90;;;;;;;;;;5237053;28;20052;-74
2023/01/15 04:11:05;;;;;;;3.85;0.40;;;;;;;;;;5236817;28;20022;-74
2023/01/15 04:13:36;;;;;;;7.65;0.55;;;;;;;;;;5236107;28;20464;-73
2023/01/15 04:16:08;;;;;;;8.77;0.90;;;;;;;;;;5236695;28;20422;-73
2023/01/15 04:18:39;;;;;;;6.10;0.70;;;;;;;;;;5236344;28;20057;-74
2023/01/15 04:21:10;;;;;;;7.57;0.50;;;;;;;;;;5239112;28;20099;-73
2023/01/15 04:23:42;;;;;;;5.32;0.65;;;;;;;;;;5240264;28;20479;-73
2023/01/15 04:26:13;;;;;;;7.15;0.40;;;;;;;;;;5240379;28;20025;-73
2023/01/15 04:28:44;;;;;;;6.30;0.50;;;;;;;;;;5239510;28;20036;-74
2023/01/15 04:31:15;;;;;;;6.53;0.40;;;;;;;;;;5240527;28;20025;-73
2023/01/15 04:33:47;;;;;;;7.65;0.52;;;;;;;;;;5239277;28;20052;-73
2023/01/15 04:36:18;;;;;;;7.45;0.35;;;;;;;;;;5240451;28;20026;-73
2023/01/15 04:38:49;;;;;;;5.28;0.40;;;;;;;;;;5239973;28;20013;-73
2023/01/15 04:44:10;;;;;;;5.30;0.50;;;;;;;;;;5240735;28;20021;-73
2023/01/15 04:46:42;;;;;;;3.17;0.32;;;;;;;;;;5239552;28;20053;-73
2023/01/15 04:49:15;;;;;;;5.28;0.38;;;;;;;;;;5239692;28;20029;-74
2023/01/15 04:51:46;;;;;;;6.93;0.65;;;;;;;;;;5239413;28;20024;-73
2023/01/15 04:54:18;;;;;;;10.70;0.98;;;;;;;;;;5240491;28;20516;-73
2023/01/15 04:56:50;;;;;;;9.40;0.63;;;;;;;;;;5238949;28;20037;-73
2023/01/15 04:59:23;;;;;;;6.88;0.68;;;;;;;;;;5240037;28;20018;-73
2023/01/15 05:01:54;;;;;;;9.60;0.50;;;;;;;;;;5239007;28;20104;-73
2023/01/15 05:04:25;;;;;;;10.30;0.68;;;;;;;;;;5239645;28;20120;-74
2023/01/15 05:06:56;;;;;;;5.07;0.90;;;;;;;;;;5239743;28;20033;-74
2023/01/15 05:09:28;;;;;;;5.60;0.80;;;;;;;;;;5239034;28;20029;-74
2023/01/15 05:11:59;;;;;;;3.60;0.30;;;;;;;;;;5239689;28;20030;-73
2023/01/15 05:14:30;;;;;;;8.73;0.60;;;;;;;;;;5239624;28;20097;-74
2023/01/15 05:17:01;;;;;;;6.07;0.52;;;;;;;;;;5238680;28;20108;-74
2023/01/15 05:19:32;;;;;;;5.68;0.70;;;;;;;;;;5239521;28;20464;-73
2023/01/15 05:22:04;;;;;;;8.43;0.50;;;;;;;;;;5239513;28;20028;-73
2023/01/15 05:24:35;;;;;;;6.93;0.40;;;;;;;;;;5238806;28;20025;-73
2023/01/15 05:27:07;;;;;;;4.60;0.40;;;;;;;;;;5239247;28;20070;-73
2023/01/15 05:29:38;;;;;;;5.18;0.40;;;;;;;;;;5238726;28;20484;-73
2023/01/15 05:32:09;;;;;;;6.13;1.23;;;;;;;;;;5238815;28;20088;-73
2023/01/15 05:34:40;;;;;;;5.13;0.47;;;;;;;;;;5239162;28;20034;-73
2023/01/15 05:37:11;;;;;;;7.20;0.70;;;;;;;;;;5238810;28;20027;-73
2023/01/15 05:39:43;;;;;;;7.60;1.40;;;;;;;;;;5238819;28;20025;-73
2023/01/15 05:42:14;;;;;;;7.93;0.63;;;;;;;;;;5239648;28;20029;-73
2023/01/15 05:44:45;;;;;;;3.78;0.40;;;;;;;;;;5237962;28;20022;-72
2023/01/15 05:47:16;;;;;;;4.50;0.40;;;;;;;;;;5239121;28;20053;-73
2023/01/15 05:49:49;;;;;;;4.68;0.40;;;;;;;;;;5238803;28;20391;-72
2023/01/15 05:52:20;;;;;;;6.45;0.50;;;;;;;;;;5238510;28;20083;-73
2023/01/15 05:54:51;;;;;;;5.35;0.45;;;;;;;;;;5238996;28;20226;-73
2023/01/15 05:57:22;;;;;;;7.10;0.60;;;;;;;;;;5238770;28;20030;-72
2023/01/15 05:59:55;;;;;;;6.45;0.60;;;;;;;;;;5238329;28;20425;-73
2023/01/15 06:02:26;;;;;;;7.70;0.82;;;;;;;;;;5238765;28;20021;-73
2023/01/15 06:04:57;;;;;;;6.75;0.45;;;;;;;;;;5238048;28;20144;-73
2023/01/15 06:07:28;;;;;;;8.05;0.47;;;;;;;;;;5238679;28;20033;-73
2023/01/15 06:09:59;;;;;;;10.50;0.60;;;;;;;;;;5238742;28;20025;-72
2023/01/15 06:12:31;;;;;;;5.63;0.63;;;;;;;;;;5237910;28;20493;-73
2023/01/15 06:15:02;;;;;;;5.65;0.65;;;;;;;;;;5238508;28;20424;-73
2023/01/15 06:17:33;;;;;;;4.80;0.55;;;;;;;;;;5238730;28;20380;-73
2023/01/15 06:20:05;;;;;;;8.98;0.70;;;;;;;;;;5237980;28;20029;-73
2023/01/15 06:22:37;;;;;;;4.97;0.90;;;;;;;;;;5238439;28;20025;-73
2023/01/15 06:25:08;;;;;;;3.22;0.43;;;;;;;;;;5238542;28;20022;-73
2023/01/15 06:27:43;;;;;;;6.07;0.50;;;;;;;;;;5237137;28;20044;-74
2023/01/15 06:30:14;;;;;;;5.72;0.50;;;;;;;;;;5238899;28;20025;-73
2023/01/15 06:32:45;;;;;;;5.95;0.40;;;;;;;;;;5237864;28;20024;-73
2023/01/15 06:35:17;;;;;;;6.20;0.45;;;;;;;;;;5237966;28;20026;-74
2023/01/15 06:37:48;;;;;;;4.88;0.38;;;;;;;;;;5237891;28;20041;-74
2023/01/15 06:40:20;;;;;;;5.57;0.70;;;;;;;;;;5237774;28;20112;-74
2023/01/15 06:48:31;;;;;;;3.53;0.32;;;;;;;;;;5237256;28;20041;-74
2023/01/15 06:51:03;;;;;;;5.78;0.63;;;;;;;;;;5238185;28;20528;-73
2023/01/15 06:53:34;;;;;;;5.60;0.40;;;;;;;;;;5238182;28;20033;-73
2023/01/15 06:56:05;;;;;;;5.55;0.32;;;;;;;;;;5237357;28;20022;-73
2023/01/15 06:58:37;;;;;;;4.10;0.50;;;;;;;;;;5238226;28;20014;-73
2023/01/15 07:01:09;;;;;;;5.00;0.95;;;;;;;;;;5237172;28;20357;-73
2023/01/15 07:03:41;;;;;;;7.63;0.60;;;;;;;;;;5237950;28;20413;-73
2023/01/15 07:06:12;;;;;;;5.78;0.50;;;;;;;;;;5238248;28;20150;-73
2023/01/15 07:08:43;;;;;;;4.95;0.73;;;;;;;;;;5236572;28;20492;-74
2023/01/15 07:11:16;;;;;;;3.88;0.52;;;;;;;;;;5238030;28;20468;-74
2023/01/15 07:13:48;;;;;;;3.45;0.40;;;;;;;;;;5237403;28;20036;-74
2023/01/15 07:16:28;;;;;;;3.25;0.30;;;;;;;;;;5237200;28;20354;-74
2023/01/15 07:18:59;;;;;;;5.07;0.40;;;;;;;;;;5237784;28;20158;-74
2023/01/15 07:21:31;;;;;;;6.50;0.47;;;;;;;;;;5237541;28;20104;-74
2023/01/15 07:24:02;;;;;;;5.13;0.40;;;;;;;;;;5236684;28;20110;-74
2023/01/15 07:26:33;;;;;;;5.43;0.40;;;;;;;;;;5237592;28;20032;-74
2023/01/15 07:29:05;;;;;;;4.38;0.50;;;;;;;;;;5237012;28;20041;-74
2023/01/15 07:31:36;;;;;;;4.18;0.60;;;;;;;;;;5237119;28;20349;-74
2023/01/15 07:34:07;;;;;;;5.70;0.43;;;;;;;;;;5237138;28;20037;-74
2023/01/15 07:36:38;;;;;;;4.97;0.35;;;;;;;;;;5236383;28;20017;-74
2023/01/15 07:39:10;;;;;;;7.15;0.68;;;;;;;;;;5237452;28;20033;-74
2023/01/15 07:50:13;;;;;;;3.53;0.40;;;;;;;;;;5236837;28;20053;-74
2023/01/15 07:52:45;;;;;;;4.15;0.38;;;;;;;;;;5236781;28;20018;-74
2023/01/15 07:55:16;;;;;;;2.85;0.30;;;;;;;;;;5236882;28;20021;-74
2023/01/15 07:57:47;;;;;;;4.97;0.40;;;;;;;;;;5235802;28;20369;-73
2023/01/15 08:00:20;;;;;;;7.60;0.40;;;;;;;;;;5237406;28;20425;-73
2023/01/15 08:02:51;;;;;;;5.10;0.30;;;;;;;;;;5236705;28;20025;-74
2023/01/15 08:05:22;;;;;;;3.53;0.45;;;;;;;;;;5236160;28;20033;-74
2023/01/15 08:07:53;;;;;;;3.10;0.74;;;;;;;;;;5236766;28;20464;-74
2023/01/15 08:10:24;;;;;;;4.10;0.40;;;;;;;;;;5236938;28;20456;-74
2023/01/15 08:15:45;;;;;;;7.20;1.23;;;;;;;;;;5236393;28;20025;-73
2023/01/15 08:18:17;;;;;;;4.82;0.50;;;;;;;;;;5243202;28;20026;-72
2023/01/15 08:20:48;;;;;;;4.72;0.68;;;;;;;;;;5343843;27;20554;-74
2023/01/15 08:23:19;;;;;;;4.40;0.70;;;;;;;;;;5345259;28;20026;-75
2023/01/15 08:25:50;;;;;;;3.33;0.32;;;;;;;;;;5344198;28;20016;-74
2023/01/15 08:28:21;;;;;;;2.50;0.30;;;;;;;;;;5344854;27;20055;-75
2023/01/15 08:30:52;;;;;;;4.00;0.30;;;;;;;;;;5345021;28;20020;-74
2023/01/15 08:33:24;;;;;;;4.07;0.30;;;;;;;;;;5343976;28;20106;-75
2023/01/15 08:35:56;;;;;;;4.05;0.30;;;;;;;;;;5344736;28;20454;-74
2023/01/15 08:38:27;;;;;;;3.45;0.73;;;;;;;;;;5344888;27;20485;-76
2023/01/15 08:40:58;;;;;;;2.35;0.30;;;;;;;;;;5344480;28;20019;-74
2023/01/15 08:43:32;;;;;;;4.97;0.47;;;;;;;;;;5344223;28;20084;-75
2023/01/15 08:46:04;;;;;;;4.18;0.30;;;;;;;;;;5344830;27;20039;-74
2023/01/15 08:48:35;;;;;;;3.67;0.30;;;;;;;;;;5343937;27;20027;-75
2023/01/15 08:51:07;;;;;;;4.13;0.40;;;;;;;;;;5344446;27;20076;-75
2023/01/15 08:53:38;;;;;;;3.35;0.47;;;;;;;;;;5342953;27;20027;-75
2023/01/15 08:56:13;;;;;;;2.70;0.30;;;;;;;;;;5345052;27;20359;-74
2023/01/15 08:58:46;;;;;;;3.50;0.30;;;;;;;;;;5344745;27;20362;-74
2023/01/15 09:01:17;;;;;;;4.65;0.40;;;;;;;;;;5344032;27;20536;-74
2023/01/15 09:03:48;;;;;;;5.15;0.75;;;;;;;;;;5344093;28;20027;-74
2023/01/15 09:06:19;;;;;;;4.03;0.40;;;;;;;;;;5345125;27;20076;-75
2023/01/15 09:08:50;;;;;;;4.72;0.80;;;;;;;;;;5347459;27;20070;-75
2023/01/15 09:11:22;;;;;;;6.03;0.60;;;;;;;;;;5348449;27;20027;-74
2023/01/15 09:13:53;;;;;;;5.40;0.60;;;;;;;;;;5348119;27;20094;-73
2023/01/15 09:16:26;;;;;;;3.38;0.43;;;;;;;;;;5347406;27;20019;-74
2023/01/15 09:18:57;;;;;;;4.38;0.30;;;;;;;;;;5328665;27;20032;-74
2023/01/15 09:21:29;;;;;;;3.35;0.50;;;;;;;;;;5239341;28;20026;-75
2023/01/15 09:24:00;;;;;;;7.30;0.43;;;;;;;;;;5238751;28;20036;-74
2023/01/15 09:26:35;;;;;;;7.22;0.52;;;;;;;;;;5239281;28;20370;-74
2023/01/15 09:29:07;;;;;;;7.78;0.70;;;;;;;;;;5238745;28;20116;-74
2023/01/15 09:31:39;;;;;;;5.47;0.43;;;;;;;;;;5239297;28;20475;-75
2023/01/15 09:34:10;;;;;;;7.05;0.50;;;;;;;;;;5239787;28;20033;-73
2023/01/15 09:36:41;;;;;;;5.25;0.80;;;;;;;;;;5238201;28;20100;-74
2023/01/15 09:39:12;;;;;;;4.35;0.40;;;;;;;;;;5239403;28;20025;-73
2023/01/15 09:42:09;;;;;;;5.47;0.50;;;;;;;;;;5238747;28;20078;-74
2023/01/15 09:44:49;;;;;;;5.60;0.40;;;;;;;;;;5238038;28;20017;-74
2023/01/15 09:47:29;;;;;;;4.30;0.47;;;;;;;;;;5239072;28;20073;-75
2023/01/15 09:50:14;;;;;;;4.40;0.60;;;;;;;;;;5237953;28;20549;-74
2023/01/15 09:52:58;;;;;;;8.30;0.60;;;;;;;;;;5238689;28;20010;-74
2023/01/15 09:55:31;;;;;;;4.93;0.30;;;;;;;;;;5239154;28;20018;-74
2023/01/15 09:58:03;;;;;;;4.15;0.40;;;;;;;;;;5238150;28;20028;-74
2023/01/15 10:00:38;;;;;;;5.70;0.32;;;;;;;;;;5238597;28;20017;-74
2023/01/15 10:03:09;;;;;;;5.85;0.40;;;;;;;;;;5238961;28;20022;-74
2023/01/15 10:05:42;;;;;;;5.42;0.40;;;;;;;;;;5237874;28;20036;-75
2023/01/15 10:08:18;;;;;;;7.35;0.85;;;;;;;;;;5238805;28;20014;-74
2023/01/15 10:10:54;;;;;;;5.05;0.50;;;;;;;;;;5238196;28;20025;-74
2023/01/15 10:13:41;;;;;;;5.20;0.40;;;;;;;;;;5238847;28;20010;-74
2023/01/15 10:16:23;;;;;;;6.82;0.40;;;;;;;;;;5238976;28;20017;-73
2023/01/15 10:18:57;;;;;;;6.30;0.90;;;;;;;;;;5237468;28;20021;-74
2023/01/15 10:21:34;;;;;;;5.25;0.40;;;;;;;;;;5238705;28;20494;-74
2023/01/15 10:24:09;;;;;;;4.82;0.35;;;;;;;;;;5238503;28;20392;-73
2023/01/15 10:26:54;;;;;;;7.53;0.70;;;;;;;;;;5237389;28;20154;-74
2023/01/15 10:29:28;;;;;;;6.65;0.50;;;;;;;;;;5238143;28;20033;-74
2023/01/15 10:32:06;;;;;;;6.90;0.70;;;;;;;;;;5237193;28;20042;-73
2023/01/15 10:34:58;;;;;;;5.78;0.40;;;;;;;;;;5238134;28;20018;-72
2023/01/15 10:37:33;;;;;;;3.33;0.45;;;;;;;;;;5238073;28;20033;-73
2023/01/15 10:40:04;;;;;;;5.80;0.95;;;;;;;;;;5237625;28;20018;-73
2023/01/15 10:42:44;;;;;;;8.90;0.70;;;;;;;;;;5238149;28;20026;-75
2023/01/15 10:45:23;;;;;;;8.38;0.50;;;;;;;;;;5238579;28;20429;-74
2023/01/15 10:48:00;;;;;;;4.47;0.50;;;;;;;;;;5237036;28;20041;-75
2023/01/15 10:50:31;;;;;;;5.55;0.50;;;;;;;;;;5238390;28;20472;-73
2023/01/15 10:53:21;;;;;;;4.15;0.50;;;;;;;;;;5237817;28;20066;-75
2023/01/15 10:55:56;;;;;;;6.53;0.40;;;;;;;;;;5237830;28;20026;-74
2023/01/15 10:58:31;;;;;;;8.23;0.35;;;;;;;;;;5237918;28;20027;-74
2023/01/15 11:01:04;;;;;;;3.20;0.30;;;;;;;;;;5237470;28;20382;-75
2023/01/15 11:03:40;;;;;;;4.10;0.40;;;;;;;;;;5240014;28;20096;-75
2023/01/15 11:06:13;;;;;;;4.97;0.30;;;;;;;;;;5240305;28;20021;-75
2023/01/15 11:08:46;;;;;;;4.70;0.73;;;;;;;;;;5236601;28;20438;-75
2023/01/15 11:11:20;;;;;;;3.75;0.52;;;;;;;;;;5238244;28;20532;-75
2023/01/15 11:19:38;;;;;;;6.63;0.40;;;;;;;;;;5237315;28;20468;-74
2023/01/15 11:22:09;;;;;;;2.00;0.20;;;;;;;;;;5237366;28;20369;-72
2023/01/15 11:24:59;;;;;;;2.70;0.22;;;;;;;;;;5237314;28;20086;-74
2023/01/15 11:27:31;;;;;;;5.03;0.30;;;;;;;;;;5237221;28;20033;-73
2023/01/15 11:30:04;;;;;;;2.45;0.38;;;;;;;;;;5235858;28;20029;-72
2023/01/15 11:32:36;;;;;;;2.53;0.50;;;;;;;;;;5237192;27;20041;-72
2023/01/15 11:35:07;;;;;;;2.58;0.20;;;;;;;;;;5237462;28;20049;-73
2023/01/15 11:37:39;;;;;;;2.65;0.30;;;;;;;;;;5236124;28;20033;-72
2023/01/15 11:40:17;;;;;;;1.77;0.20;;;;;;;;;;5233040;28;20026;-72
2023/01/15 11:51:40;;;;;;;3.17;0.22;;;;;;;;;;5235268;28;20140;-72
2023/01/15 11:54:12;;;;;;;3.08;0.20;;;;;;;;;;5236333;28;20379;-72
2023/01/15 11:56:44;;;;;;;5.63;0.32;;;;;;;;;;5235989;28;20055;-72
2023/01/15 11:59:18;;;;;;;2.20;0.20;;;;;;;;;;5237449;28;20098;-71
2023/01/15 12:01:58;;;;;;;3.22;0.30;;;;;;;;;;5236701;28;20029;-73
2023/01/15 12:04:29;;;;;;;2.17;0.45;;;;;;;;;;5236119;28;20037;-72
2023/01/15 12:07:01;;;;;;;3.50;0.20;;;;;;;;;;5236468;28;20485;-73
2023/01/15 12:09:38;;;;;;;2.63;0.10;;;;;;;;;;5236101;28;20505;-72
2023/01/15 12:12:20;;;;;;;3.10;0.38;;;;;;;;;;5236481;28;20086;-73
2023/01/15 12:14:57;;;;;;;3.50;0.20;;;;;;;;;;5236687;28;20029;-73
2023/01/15 12:17:47;;;;;;;2.80;0.50;;;;;;;;;;5235636;28;20112;-74
2023/01/15 12:20:41;;;;;;;1.98;0.20;;;;;;;;;;5237071;28;20021;-73
2023/01/15 12:23:35;;;;;;;2.47;0.30;;;;;;;;;;5237126;28;20009;-74
2023/01/15 12:26:22;;;;;;;2.40;0.30;;;;;;;;;;5235682;28;20476;-73
2023/01/15 12:29:04;;;;;;;4.05;0.30;;;;;;;;;;5236510;28;20029;-73
2023/01/15 12:31:38;;;;;;;1.55;0.20;;;;;;;;;;5235901;28;20022;-74
2023/01/15 12:34:18;;;;;;;2.75;0.30;;;;;;;;;;5236590;28;20025;-74
2023/01/15 12:37:04;;;;;;;2.38;0.20;;;;;;;;;;5236420;28;20432;-74
2023/01/15 12:39:46;;;;;;;2.00;0.20;;;;;;;;;;5235787;28;20026;-74
2023/01/15 12:45:11;;;;;;;1.33;0.20;;;;;;;;;;5240487;28;20041;-74
2023/01/15 12:48:01;;;;;;;4.00;0.63;;;;;;;;;;5238422;28;20106;-74
2023/01/15 12:50:44;;;;;;;3.95;0.60;;;;;;;;;;5240020;28;20113;-74
2023/01/15 12:53:16;;;;;;;3.63;0.20;;;;;;;;;;5239599;28;20022;-74
2023/01/15 12:56:07;;;;;;;4.13;0.50;;;;;;;;;;5239623;28;20503;-75
2023/01/15 12:58:56;;;;;;;3.42;0.40;;;;;;;;;;5199023;28;20025;-72
2023/01/15 13:01:27;;;;;;;;;;;;;;;;;;5239399;28;20046;-73
2023/01/15 13:03:59;;;;;;;1.30;0.20;;;;;;;;;;5239907;28;19908;-74
2023/01/15 13:06:30;;;;;;;1.98;0.20;;;;;;;;;;5239753;28;20040;-73
2023/01/15 13:09:22;;;;;;;5.20;0.30;;;;;;;;;;5238912;28;20037;-74
2023/01/15 13:11:53;;;;;;;1.67;0.20;;;;;;;;;;5239148;27;20036;-74
2023/01/15 13:14:24;;;;;;;4.65;0.52;;;;;;;;;;5239222;28;20025;-74
2023/01/15 13:17:07;;;;;;;2.78;0.35;;;;;;;;;;5240573;28;20021;-74
2023/01/15 13:19:47;;;;;;;2.58;0.20;;;;;;;;;;5239548;28;20372;-74
2023/01/15 13:22:23;;;;;;;3.55;0.30;;;;;;;;;;5238872;28;20438;-73
2023/01/15 13:24:55;;;;;;;1.77;0.28;;;;;;;;;;5239345;28;20026;-73
2023/01/15 13:27:33;;;;;;;2.17;0.20;;;;;;;;;;5239047;28;20038;-74
2023/01/15 13:30:23;;;;;;;1.75;0.30;;;;;;;;;;5238533;28;20447;-74
2023/01/15 13:32:57;;;;;;;1.27;0.20;;;;;;;;;;5239046;28;20030;-74
2023/01/15 13:35:30;;;;;;;1.65;0.20;;;;;;;;;;5238543;28;20468;-74
2023/01/15 13:38:10;;;;;;;3.78;0.40;;;;;;;;;;5239304;28;20075;-74
2023/01/15 13:40:49;;;;;;;2.70;0.20;;;;;;;;;;5238748;28;20036;-75
2023/01/15 13:43:32;;;;;;;3.90;0.80;;;;;;;;;;5238640;28;20025;-74
2023/01/15 13:46:08;;;;;;;2.78;0.65;;;;;;;;;;5239134;28;20093;-73
2023/01/15 13:48:44;;;;;;;2.65;0.20;;;;;;;;;;5238740;28;20484;-73
2023/01/15 13:51:27;;;;;;;4.28;0.40;;;;;;;;;;5238587;28;20049;-74
2023/01/15 13:53:59;;;;;;;5.55;0.40;;;;;;;;;;5238533;28;20977;-73
2023/01/15 13:56:31;;;;;;;5.68;0.45;;;;;;;;;;5238267;28;20022;-73
2023/01/15 13:59:04;;;;;;;5.18;0.63;;;;;;;;;;5239001;28;20357;-74
2023/01/15 14:01:36;;;;;;;2.78;0.32;;;;;;;;;;5238817;28;20025;-73
2023/01/15 14:04:11;;;;;;;2.85;0.30;;;;;;;;;;5237957;28;20121;-74
2023/01/15 14:06:43;;;;;;;3.05;0.30;;;;;;;;;;5238425;28;20034;-75
2023/01/15 14:09:17;;;;;;;2.53;0.30;;;;;;;;;;5239160;28;20374;-74
2023/01/15 14:12:13;;;;;;;3.58;0.50;;;;;;;;;;5237587;28;20108;-74
2023/01/15 14:14:56;;;;;;;1.00;0.20;;;;;;;;;;5238455;28;20468;-74
2023/01/15 14:17:30;;;;;;;2.97;0.30;;;;;;;;;;5237792;28;20033;-74
2023/01/15 14:20:20;;;;;;;4.63;0.40;;;;;;;;;;5238539;28;20433;-74
2023/01/15 14:22:51;;;;;;;4.78;0.30;;;;;;;;;;5238570;28;20384;-74
2023/01/15 14:25:25;;;;;;;2.32;0.28;;;;;;;;;;5237786;28;20025;-75
2023/01/15 14:28:01;;;;;;;2.45;0.20;;;;;;;;;;5238275;28;20025;-74
2023/01/15 14:30:32;;;;;;;2.42;0.30;;;;;;;;;;5238252;28;20036;-74
2023/01/15 14:33:21;;;;;;;1.90;0.20;;;;;;;;;;5237684;28;20456;-74
2023/01/15 14:35:52;;;;;;;2.33;0.45;;;;;;;;;;5238690;28;20017;-74
2023/01/15 14:38:25;;;;;;;4.00;1.10;;;;;;;;;;5237624;28;20018;-75
2023/01/15 14:40:58;;;;;;;1.58;0.30;;;;;;;;;;5238338;28;20028;-74
2023/01/15 14:43:32;;;;;;;1.85;0.28;;;;;;;;;;5238164;28;20022;-73
2023/01/15 14:46:10;;;;;;;3.47;0.30;;;;;;;;;;5237310;28;20029;-73
2023/01/15 14:48:42;;;;;;;1.85;0.20;;;;;;;;;;5237825;28;20033;-74
2023/01/15 14:51:26;;;;;;;2.90;0.47;;;;;;;;;;5238370;28;20078;-74
2023/01/15 14:53:57;;;;;;;2.65;0.47;;;;;;;;;;5237233;28;20535;-74
2023/01/15 14:56:31;;;;;;;1.50;0.20;;;;;;;;;;5237926;28;20112;-75
2023/01/15 14:59:13;;;;;;;2.85;0.30;;;;;;;;;;5238016;28;20021;-73
2023/01/15 15:01:50;;;;;;;2.22;0.20;;;;;;;;;;5237286;28;20157;-73
2023/01/15 15:04:33;;;;;;;2.90;0.20;;;;;;;;;;5236610;28;20025;-74
2023/01/15 15:07:10;;;;;;;0.95;0.20;;;;;;;;;;5237321;28;20047;-73
2023/01/15 15:09:42;;;;;;;2.15;0.77;;;;;;;;;;5237477;28;20049;-75
2023/01/15 15:12:26;;;;;;;4.35;0.30;;;;;;;;;;5238074;28;20464;-74
2023/01/15 15:15:12;;;;;;;2.42;0.20;;;;;;;;;;5236768;28;20038;-74
2023/01/15 15:17:52;;;;;;;2.45;0.28;;;;;;;;;;5237459;28;20072;-75
2023/01/15 15:20:42;;;;;;;1.50;0.30;;;;;;;;;;5237099;28;20033;-74
2023/01/15 15:23:24;;;;;;;1.20;0.20;;;;;;;;;;5238180;28;20033;-74
2023/01/15 15:25:59;;;;;;;1.30;0.20;;;;;;;;;;5238173;28;20433;-75
2023/01/15 15:28:31;;;;;;;1.33;0.20;;;;;;;;;;5237403;28;20033;-75
2023/01/15 15:31:02;;;;;;;1.48;0.30;;;;;;;;;;5237667;28;20074;-75
2023/01/15 15:33:37;;;;;;;1.75;0.20;;;;;;;;;;5237480;28;20564;-74
2023/01/15 15:36:09;;;;;;;1.75;0.35;;;;;;;;;;5236853;28;20018;-75
2023/01/15 15:38:50;;;;;;;1.15;0.20;;;;;;;;;;5237155;28;20440;-75
2023/01/15 15:48:40;;;;;;;2.10;0.80;;;;;;;;;;5237329;28;20044;-75
2023/01/15 15:50:22;;;;;;;2.25;0.20;;;;;;;;;;5236948;28;20041;-75
2023/01/15 15:52:54;;;;;;;2.20;0.20;;;;;;;;;;5237347;28;20025;-75
2023/01/15 15:55:31;;;;;;;2.22;0.20;;;;;;;;;;5237310;28;20017;-75
2023/01/15 15:58:02;;;;;;;1.92;0.25;;;;;;;;;;5237209;28;20102;-75
2023/01/15 16:00:34;;;;;;;1.92;0.20;;;;;;;;;;5236818;28;20469;-75
2023/01/15 16:03:22;;;;;;;1.30;0.30;;;;;;;;;;5236249;28;20029;-76
2023/01/15 16:05:54;;;;;;;3.97;0.20;;;;;;;;;;5236952;28;20518;-75
2023/01/15 16:08:26;;;;;;;0.90;0.20;;;;;;;;;;5236854;28;20022;-75
2023/01/15 16:10:59;;;;;;;2.25;0.47;;;;;;;;;;5236387;28;20114;-75
2023/01/15 16:13:44;;;;;;;1.58;0.20;;;;;;;;;;5237004;28;20049;-75
2023/01/15 16:16:16;;;;;;;2.33;0.38;;;;;;;;;;5238717;28;20025;-75